Time;durP1;ratioP1;P1;durP2;ratioP2;P2;SDS_P1;SDS_P2;PMS_P1;PMS_P2;Temp;Humidity;BMP_temperature;BMP_pressure;BME280_temperature;BME280_humidity;BME280_pressure;Samples;Min_cycle;Max_cycle;Signal;HPM_P1;HPM_P2
2021/07/14 17:01:54;;;;;;;0.30;0.20;;;22.00;60.60;;;;;;5073605;28;20379;-83
2021/07/14 17:04:20;;;;;;;0.30;0.20;;;22.10;60.60;;;;;;5064963;28;20024;-83
2021/07/14 17:06:46;;;;;;;0.38;0.20;;;22.30;58.80;;;;;;5077155;28;20044;-83
2021/07/14 17:09:11;;;;;;;0.40;0.20;;;22.50;59.40;;;;;;5086204;28;20024;-82
2021/07/14 17:11:37;;;;;;;0.45;0.30;;;22.80;59.40;;;;;;5060853;28;20415;-82
2021/07/14 17:14:06;;;;;;;0.30;0.30;;;22.80;58.60;;;;;;5076320;28;20028;-83
2021/07/14 17:16:31;;;;;;;0.50;0.22;;;22.90;57.70;;;;;;5079593;28;20150;-82
2021/07/14 17:18:57;;;;;;;0.60;0.30;;;23.00;58.40;;;;;;5065324;28;20075;-83
2021/07/14 17:21:23;;;;;;;0.40;0.25;;;23.00;58.00;;;;;;5085681;28;20485;-83
2021/07/14 17:23:48;;;;;;;0.70;0.30;;;22.90;58.20;;;;;;5071891;28;20028;-83
2021/07/14 17:26:14;;;;;;;0.20;0.20;;;23.10;58.60;;;;;;5077588;28;20074;-83
2021/07/14 17:28:40;;;;;;;1.45;0.40;;;23.00;58.10;;;;;;5091957;28;20592;-83
2021/07/14 17:31:06;;;;;;;0.47;0.30;;;23.00;58.70;;;;;;5091321;28;20058;-83
2021/07/14 17:33:32;;;;;;;0.98;0.30;;;23.00;57.20;;;;;;5054446;28;20033;-84
2021/07/14 17:35:58;;;;;;;0.52;0.28;;;22.90;57.80;;;;;;5054110;28;20054;-83
2021/07/14 17:38:23;;;;;;;0.28;0.20;;;22.90;57.50;;;;;;5074189;28;20529;-83
2021/07/14 17:40:49;;;;;;;0.73;0.30;;;22.80;57.70;;;;;;5059125;28;20059;-83
2021/07/14 17:43:15;;;;;;;0.30;0.20;;;22.70;58.00;;;;;;5051543;28;20100;-84
2021/07/14 17:45:40;;;;;;;0.50;0.40;;;22.70;58.50;;;;;;5052595;28;20040;-79
2021/07/14 17:48:06;;;;;;;0.63;0.40;;;22.60;58.20;;;;;;5057643;28;20569;-83
2021/07/14 17:50:32;;;;;;;0.43;0.30;;;22.60;58.50;;;;;;5064231;28;20079;-80
2021/07/14 17:52:59;;;;;;;0.50;0.30;;;22.50;58.80;;;;;;5057358;28;20029;-87
2021/07/14 17:55:25;;;;;;;0.43;0.30;;;22.50;58.80;;;;;;5063794;28;20704;-83
2021/07/14 17:57:50;;;;;;;0.85;0.30;;;22.40;57.60;;;;;;5065881;28;20037;-88
2021/07/14 18:00:17;;;;;;;0.35;0.25;;;22.40;58.10;;;;;;5058598;28;20078;-84
2021/07/14 18:02:45;;;;;;;0.50;0.38;;;22.30;57.10;;;;;;5058971;28;20062;-81
2021/07/14 18:05:11;;;;;;;0.95;0.45;;;22.20;58.10;;;;;;5059188;28;20027;-86
2021/07/14 18:07:38;;;;;;;0.52;0.32;;;22.20;58.00;;;;;;5063277;28;20037;-85
2021/07/14 18:10:06;;;;;;;0.70;0.40;;;22.10;57.90;;;;;;5053620;28;20032;-86
2021/07/14 18:12:31;;;;;;;0.40;0.30;;;22.00;58.20;;;;;;5052805;28;20028;-82
2021/07/14 18:14:57;;;;;;;0.50;0.30;;;21.90;59.00;;;;;;5054514;28;20021;-84
2021/07/14 18:17:23;;;;;;;0.68;0.40;;;21.90;58.90;;;;;;5046470;28;20080;-80
2021/07/14 18:19:48;;;;;;;0.40;0.30;;;21.80;58.30;;;;;;5043604;28;20057;-79
2021/07/14 18:22:14;;;;;;;0.47;0.40;;;21.80;59.00;;;;;;5047042;28;20029;-78
2021/07/14 18:24:40;;;;;;;0.70;0.40;;;21.80;59.20;;;;;;5046026;28;20112;-86
2021/07/14 18:27:07;;;;;;;0.93;0.40;;;21.70;59.50;;;;;;5050542;28;20124;-76
2021/07/14 18:29:33;;;;;;;0.60;0.47;;;21.60;59.90;;;;;;5048828;28;20438;-87
2021/07/14 18:31:58;;;;;;;0.60;0.40;;;21.60;59.80;;;;;;5043946;28;20113;-87
2021/07/14 18:34:24;;;;;;;0.52;0.40;;;21.60;59.90;;;;;;5053856;28;20092;-88
2021/07/14 18:36:50;;;;;;;0.80;0.40;;;21.50;60.50;;;;;;5052293;28;20040;-88
2021/07/14 18:39:16;;;;;;;0.75;0.40;;;21.40;60.60;;;;;;5047672;28;20087;-82
2021/07/14 18:41:42;;;;;;;0.40;0.30;;;21.40;60.60;;;;;;5047744;28;20092;-85
2021/07/14 18:44:08;;;;;;;0.45;0.30;;;21.30;60.80;;;;;;5045898;28;20033;-84
2021/07/14 18:46:34;;;;;;;0.30;0.28;;;21.30;61.00;;;;;;5051102;28;20047;-87
2021/07/14 18:49:06;;;;;;;0.50;0.40;;;21.20;61.40;;;;;;5046366;28;20441;-87
2021/07/14 18:51:33;;;;;;;0.45;0.30;;;21.00;62.30;;;;;;5045099;28;20044;-83
2021/07/14 18:53:58;;;;;;;0.50;0.40;;;21.00;62.10;;;;;;5051088;28;20048;-88
2021/07/14 18:56:24;;;;;;;0.80;0.40;;;21.10;62.10;;;;;;5047393;28;20033;-87
2021/07/14 18:58:50;;;;;;;0.70;0.40;;;21.10;62.30;;;;;;5048303;28;20024;-85
2021/07/14 19:01:16;;;;;;;0.73;0.30;;;20.90;62.70;;;;;;5043562;28;20120;-88
2021/07/14 19:03:43;;;;;;;0.60;0.40;;;20.90;63.10;;;;;;5043347;28;20500;-85
2021/07/14 19:06:09;;;;;;;0.50;0.30;;;20.90;63.20;;;;;;5049291;28;20123;-85
2021/07/14 19:08:34;;;;;;;0.50;0.38;;;20.80;63.40;;;;;;5047066;28;20108;-86
2021/07/14 19:11:01;;;;;;;0.47;0.32;;;20.80;63.60;;;;;;5044613;28;20449;-80
2021/07/14 19:13:27;;;;;;;1.38;0.50;;;20.90;63.50;;;;;;5050743;28;20630;-81
2021/07/14 19:15:52;;;;;;;0.60;0.47;;;20.80;63.80;;;;;;5043892;28;20099;-79
2021/07/14 19:18:18;;;;;;;0.70;0.50;;;20.80;63.90;;;;;;5052235;28;20021;-83
2021/07/14 19:20:44;;;;;;;0.40;0.30;;;20.80;64.00;;;;;;5039656;28;20039;-89
2021/07/14 19:23:10;;;;;;;0.70;0.50;;;20.80;64.30;;;;;;5041059;28;20037;-86
2021/07/14 19:25:37;;;;;;;0.38;0.30;;;20.70;64.80;;;;;;5042296;28;20031;-82
2021/07/14 19:28:03;;;;;;;0.60;0.40;;;20.60;64.60;;;;;;5041480;28;20051;-85
2021/07/14 19:30:34;;;;;;;0.60;0.40;;;20.50;65.00;;;;;;5051489;28;20043;-87
2021/07/14 19:33:01;;;;;;;0.50;0.35;;;20.50;65.30;;;;;;5047060;28;20025;-86
2021/07/14 19:35:27;;;;;;;0.75;0.50;;;20.40;65.80;;;;;;5047879;28;20417;-82
2021/07/14 19:37:54;;;;;;;0.63;0.50;;;20.30;65.90;;;;;;5044585;28;20022;-87
2021/07/14 19:40:19;;;;;;;0.75;0.40;;;20.30;66.20;;;;;;5037834;28;20025;-82
2021/07/14 19:42:48;;;;;;;0.45;0.40;;;20.30;66.60;;;;;;5050208;28;20032;-85
2021/07/14 19:45:14;;;;;;;1.17;0.70;;;20.20;66.80;;;;;;5042012;28;20483;-86
2021/07/14 19:47:40;;;;;;;0.98;0.50;;;20.10;66.80;;;;;;5035961;28;20172;-87
2021/07/14 19:50:08;;;;;;;0.95;0.60;;;20.10;66.80;;;;;;5042086;28;20025;-79
2021/07/14 19:52:34;;;;;;;0.50;0.40;;;20.00;67.30;;;;;;5042196;28;20021;-79
2021/07/14 19:55:01;;;;;;;0.80;0.50;;;19.90;67.60;;;;;;5039277;28;20029;-79
2021/07/14 19:57:27;;;;;;;1.00;0.60;;;19.80;67.90;;;;;;5043242;28;20172;-85
2021/07/14 19:59:53;;;;;;;0.60;0.40;;;19.80;67.80;;;;;;5039367;28;20079;-86
2021/07/14 20:02:19;;;;;;;0.80;0.55;;;19.80;67.90;;;;;;5038958;28;20097;-88
2021/07/14 20:04:45;;;;;;;1.00;0.50;;;19.70;67.90;;;;;;5038964;28;20112;-80
2021/07/14 20:07:10;;;;;;;0.70;0.50;;;19.70;68.20;;;;;;5042652;28;20022;-83
2021/07/14 20:09:36;;;;;;;0.65;0.52;;;19.60;68.60;;;;;;5038378;28;20025;-79
2021/07/14 20:12:22;;;;;;;0.80;0.50;;;19.60;68.60;;;;;;5037437;28;20021;-80
2021/07/14 20:14:54;;;;;;;1.63;0.60;;;19.50;68.50;;;;;;5043650;28;20492;-84
2021/07/14 20:17:31;;;;;;;1.05;0.40;;;19.50;68.90;;;;;;5037665;28;20049;-84
2021/07/14 20:19:57;;;;;;;0.55;0.43;;;19.40;68.80;;;;;;5035311;28;20083;-84
2021/07/14 20:22:23;;;;;;;0.65;0.43;;;19.40;68.70;;;;;;5035115;28;20025;-81
2021/07/14 20:24:49;;;;;;;0.45;0.38;;;19.40;68.90;;;;;;5040708;28;20022;-80
2021/07/14 20:27:15;;;;;;;0.70;0.55;;;19.30;69.20;;;;;;5038246;28;20029;-85
2021/07/14 20:29:41;;;;;;;0.80;0.50;;;19.30;69.20;;;;;;5036932;28;20037;-85
2021/07/14 20:32:08;;;;;;;1.58;0.50;;;19.20;69.50;;;;;;5045186;28;20088;-86
2021/07/14 20:34:37;;;;;;;0.60;0.50;;;19.20;69.50;;;;;;5037686;28;20022;-85
2021/07/14 20:37:03;;;;;;;1.00;0.60;;;19.10;69.70;;;;;;5043883;28;20017;-85
2021/07/14 20:39:29;;;;;;;0.82;0.68;;;19.10;69.90;;;;;;5041385;28;20021;-86
2021/07/14 20:41:54;;;;;;;0.60;0.40;;;19.00;70.10;;;;;;5044462;28;20028;-85
2021/07/14 20:44:20;;;;;;;0.70;0.50;;;19.00;70.40;;;;;;5040766;28;20087;-85
2021/07/14 20:46:46;;;;;;;0.88;0.60;;;19.00;70.50;;;;;;5038079;28;20613;-85
2021/07/14 20:49:13;;;;;;;1.00;0.60;;;18.90;70.50;;;;;;5040715;28;20025;-85
2021/07/14 20:51:42;;;;;;;0.75;0.50;;;18.90;70.50;;;;;;5036980;28;20063;-87
2021/07/14 20:54:08;;;;;;;0.95;0.70;;;18.90;70.60;;;;;;5044229;28;20430;-86
2021/07/14 20:56:38;;;;;;;0.75;0.57;;;18.80;70.80;;;;;;5041380;28;20018;-87
2021/07/14 20:59:05;;;;;;;;;;;18.80;70.80;;;;;;5042768;28;20605;-86
2021/07/14 21:01:31;;;;;;;1.10;0.60;;;18.80;70.90;;;;;;5045220;28;19925;-86
2021/07/14 21:03:56;;;;;;;1.00;0.63;;;18.80;70.90;;;;;;5037134;28;20349;-85
2021/07/14 21:06:22;;;;;;;1.17;0.60;;;18.80;70.90;;;;;;5042602;28;20040;-83
2021/07/14 21:08:51;;;;;;;1.30;0.80;;;18.80;71.20;;;;;;5043613;28;20025;-84
2021/07/14 21:11:16;;;;;;;1.08;0.60;;;18.80;71.30;;;;;;5041211;28;20087;-85
2021/07/14 21:13:42;;;;;;;0.70;0.60;;;18.60;71.80;;;;;;5042266;28;20021;-79
2021/07/14 21:16:08;;;;;;;0.70;0.60;;;18.60;71.70;;;;;;5042569;28;20205;-79
2021/07/14 21:18:33;;;;;;;0.80;0.60;;;18.50;71.90;;;;;;5046660;28;20025;-79
2021/07/14 21:20:59;;;;;;;1.02;0.60;;;18.50;72.10;;;;;;5054059;28;20029;-79
2021/07/14 21:23:25;;;;;;;0.73;0.57;;;18.50;72.10;;;;;;5034290;28;20076;-78
2021/07/14 21:25:50;;;;;;;1.00;0.68;;;18.60;71.70;;;;;;5043903;28;20679;-79
2021/07/14 21:28:16;;;;;;;0.73;0.55;;;18.50;72.30;;;;;;5052028;28;20282;-78
2021/07/14 21:30:42;;;;;;;0.88;0.68;;;18.50;72.10;;;;;;5050724;28;20025;-79
2021/07/14 21:33:08;;;;;;;1.20;0.90;;;18.50;71.80;;;;;;5033914;28;20544;-78
2021/07/14 21:35:33;;;;;;;0.90;0.68;;;18.50;71.90;;;;;;5040269;28;20025;-79
2021/07/14 21:37:59;;;;;;;1.40;0.70;;;18.40;72.10;;;;;;5043992;28;20022;-79
2021/07/14 21:40:26;;;;;;;1.10;0.70;;;18.40;72.30;;;;;;5042611;28;20061;-79
2021/07/14 21:42:56;;;;;;;1.23;0.70;;;18.30;72.60;;;;;;5042919;28;20029;-79
2021/07/14 21:45:23;;;;;;;0.98;0.70;;;18.30;72.70;;;;;;5041090;28;20029;-79
2021/07/14 21:47:49;;;;;;;1.23;0.70;;;18.30;72.80;;;;;;5046035;28;20021;-78
2021/07/14 21:50:24;;;;;;;0.82;0.60;;;18.30;73.00;;;;;;5045936;28;20116;-78
2021/07/14 21:52:50;;;;;;;1.08;0.63;;;18.20;73.20;;;;;;5049539;28;20552;-79
2021/07/14 21:55:16;;;;;;;0.60;0.50;;;18.20;73.50;;;;;;5048333;28;20044;-79
2021/07/14 21:57:42;;;;;;;0.98;0.63;;;18.10;73.50;;;;;;5045483;28;20017;-78
2021/07/14 22:00:20;;;;;;;0.82;0.60;;;18.10;73.30;;;;;;5046553;28;20453;-78
2021/07/14 22:02:46;;;;;;;1.48;0.80;;;18.10;73.50;;;;;;5046802;28;20503;-79
2021/07/14 22:05:12;;;;;;;1.10;0.80;;;18.10;73.50;;;;;;5047950;28;20025;-79
2021/07/14 22:07:38;;;;;;;0.68;0.50;;;18.00;73.50;;;;;;5046759;28;20108;-78
2021/07/14 22:10:10;;;;;;;0.98;0.65;;;18.00;73.50;;;;;;5046819;28;20033;-78
2021/07/14 22:12:36;;;;;;;1.38;0.80;;;17.90;73.90;;;;;;5047138;28;20101;-78
2021/07/14 22:15:09;;;;;;;0.80;0.60;;;17.80;74.30;;;;;;5045056;28;20093;-78
2021/07/14 22:17:35;;;;;;;1.25;0.70;;;17.80;74.40;;;;;;5047132;28;20418;-78
2021/07/14 22:20:00;;;;;;;0.80;0.60;;;17.80;74.50;;;;;;5044368;28;20083;-79
2021/07/14 22:22:26;;;;;;;0.80;0.60;;;17.70;74.50;;;;;;5046802;28;20026;-79
2021/07/14 22:24:52;;;;;;;0.80;0.60;;;17.70;74.70;;;;;;5047210;28;20036;-78
2021/07/14 22:27:17;;;;;;;1.75;1.15;;;17.70;74.90;;;;;;5048391;28;20060;-78
2021/07/14 22:29:44;;;;;;;1.13;0.80;;;17.70;74.90;;;;;;5046324;28;20048;-79
2021/07/14 22:32:10;;;;;;;1.20;0.70;;;17.60;74.90;;;;;;5044666;28;20018;-78
2021/07/14 22:34:36;;;;;;;1.05;0.80;;;17.60;75.10;;;;;;5046296;28;20058;-79
2021/07/14 22:37:03;;;;;;;0.98;0.70;;;17.50;75.30;;;;;;5048026;28;20024;-79
2021/07/14 22:39:30;;;;;;;0.90;0.70;;;17.50;75.30;;;;;;5046041;28;20491;-78
2021/07/14 22:41:57;;;;;;;0.98;0.70;;;17.50;75.30;;;;;;5046556;28;20021;-78
2021/07/14 22:44:23;;;;;;;1.00;0.70;;;17.40;75.40;;;;;;5042809;28;20033;-79
2021/07/14 22:46:49;;;;;;;0.90;0.63;;;17.50;75.30;;;;;;5045697;28;20036;-79
2021/07/14 22:49:15;;;;;;;1.00;0.60;;;17.40;75.60;;;;;;5047396;28;20048;-78
2021/07/14 22:51:40;;;;;;;1.00;0.80;;;17.30;75.60;;;;;;5046502;28;20051;-78
2021/07/14 22:54:07;;;;;;;1.00;0.80;;;17.30;75.70;;;;;;5067112;28;20025;-78
2021/07/14 22:56:33;;;;;;;1.00;0.70;;;17.30;75.50;;;;;;5076710;28;20017;-78
2021/07/14 22:58:58;;;;;;;1.10;0.80;;;17.30;75.50;;;;;;5053689;28;20044;-79
2021/07/14 23:01:25;;;;;;;1.15;0.80;;;17.30;75.50;;;;;;5040979;28;20554;-78
2021/07/14 23:03:51;;;;;;;0.90;0.80;;;17.30;75.30;;;;;;5037165;28;20108;-78
2021/07/14 23:06:17;;;;;;;0.88;0.73;;;17.30;75.30;;;;;;5037368;28;20569;-78
2021/07/14 23:08:44;;;;;;;1.10;0.80;;;17.40;75.30;;;;;;5036908;28;20040;-79
2021/07/14 23:11:10;;;;;;;1.42;0.90;;;17.30;75.30;;;;;;5056417;28;20040;-79
2021/07/14 23:13:40;;;;;;;1.05;0.90;;;17.30;75.20;;;;;;5055662;28;20103;-78
2021/07/14 23:16:06;;;;;;;1.20;0.90;;;17.30;75.40;;;;;;5054637;28;20419;-78
2021/07/14 23:18:32;;;;;;;0.95;0.85;;;17.30;75.50;;;;;;5037353;28;20025;-78
2021/07/14 23:20:58;;;;;;;1.35;0.95;;;17.30;75.30;;;;;;5036727;28;20092;-79
2021/07/14 23:23:23;;;;;;;1.63;0.77;;;17.30;75.10;;;;;;5036660;28;20439;-78
2021/07/14 23:25:49;;;;;;;1.08;0.90;;;17.20;75.20;;;;;;5040309;28;20044;-78
2021/07/14 23:28:15;;;;;;;0.88;0.70;;;17.20;75.60;;;;;;5036845;28;20030;-78
2021/07/14 23:30:41;;;;;;;1.20;0.80;;;17.10;75.40;;;;;;5038519;28;20036;-78
2021/07/14 23:33:07;;;;;;;1.25;0.90;;;17.10;75.40;;;;;;5044533;28;20025;-78
2021/07/14 23:35:34;;;;;;;1.05;0.82;;;17.20;75.50;;;;;;5036591;28;20100;-78
2021/07/14 23:38:00;;;;;;;1.20;1.00;;;17.20;75.20;;;;;;5036668;28;20389;-78
2021/07/14 23:40:26;;;;;;;1.00;0.90;;;17.10;75.20;;;;;;5054192;28;20036;-79
2021/07/14 23:42:54;;;;;;;1.00;0.90;;;17.00;75.30;;;;;;5053417;28;20120;-79
2021/07/14 23:45:22;;;;;;;1.55;1.10;;;17.00;75.60;;;;;;5036066;28;20075;-78
2021/07/14 23:47:49;;;;;;;1.58;0.93;;;17.00;75.70;;;;;;5036184;28;20076;-78
2021/07/14 23:50:17;;;;;;;1.40;1.00;;;16.90;75.70;;;;;;5036202;28;20032;-78
2021/07/14 23:52:44;;;;;;;1.20;1.00;;;16.80;75.90;;;;;;5038558;28;20036;-78
2021/07/14 23:55:12;;;;;;;1.25;0.85;;;16.80;75.90;;;;;;5056093;28;20025;-79
2021/07/14 23:57:38;;;;;;;1.08;0.93;;;16.80;75.80;;;;;;5056005;28;20044;-79
